Time;durP1;ratioP1;P1;durP2;ratioP2;P2;SDS_P1;SDS_P2;PMS_P1;PMS_P2;Temp;Humidity;BMP_temperature;BMP_pressure;BME280_temperature;BME280_humidity;BME280_pressure;Samples;Min_cycle;Max_cycle;Signal;HPM_P1;HPM_P2
2022/06/18 00:01:34;;;;;;;4.00;3.30;;;;;;;25.53;48.61;101070.20;106839;1283;61919;-84
2022/06/18 00:04:03;;;;;;;3.70;2.90;;;;;;;25.52;48.49;101068.64;106874;1283;62088;-83
2022/06/18 00:06:30;;;;;;;4.50;3.10;;;;;;;25.52;48.45;101067.04;107077;1281;72852;-83
2022/06/18 00:08:55;;;;;;;5.10;3.00;;;;;;;25.52;48.44;101065.96;107231;1283;75366;-83
2022/06/18 00:14:05;;;;;;;4.60;3.10;;;;;;;25.51;48.46;101062.99;107107;1283;62080;-83
2022/06/18 00:16:31;;;;;;;4.40;3.30;;;;;;;25.50;48.49;101062.53;106735;1283;62034;-83
2022/06/18 00:18:57;;;;;;;5.10;3.50;;;;;;;25.51;48.51;101064.83;106968;1281;62906;-84
2022/06/18 00:21:25;;;;;;;3.90;3.00;;;;;;;25.50;48.48;101070.11;107014;1281;62227;-83
2022/06/18 00:23:51;;;;;;;5.30;3.20;;;;;;;25.50;48.56;101070.27;107243;1283;61918;-83
2022/06/18 00:26:17;;;;;;;3.80;2.80;;;;;;;25.50;48.43;101067.42;106965;1283;62050;-83
2022/06/18 00:28:42;;;;;;;6.20;3.10;;;;;;;25.49;48.56;101070.18;106862;1283;62104;-83
2022/06/18 00:31:08;;;;;;;4.60;3.30;;;;;;;25.49;48.47;101070.89;107102;1283;62082;-83
2022/06/18 00:33:40;;;;;;;4.70;3.10;;;;;;;25.50;48.49;101072.52;106980;1281;62171;-83
2022/06/18 00:36:07;;;;;;;4.20;3.30;;;;;;;25.49;48.44;101071.11;106874;1284;72535;-83
2022/06/18 00:38:46;;;;;;;4.40;3.20;;;;;;;25.49;48.61;101068.41;107088;1283;76223;-84
2022/06/18 00:41:17;;;;;;;4.60;3.40;;;;;;;25.49;48.51;101060.70;107246;1281;62062;-84
2022/06/18 00:44:32;;;;;;;5.70;3.50;;;;;;;25.49;48.42;101060.88;106909;1284;62053;-85
2022/06/18 00:47:21;;;;;;;4.20;3.20;;;;;;;25.48;48.57;101062.73;106352;1287;72958;-85
2022/06/18 00:49:49;;;;;;;3.60;2.80;;;;;;;25.48;48.37;101066.86;106293;1287;76497;-84
2022/06/18 00:52:22;;;;;;;4.30;3.10;;;;;;;25.48;48.43;101063.63;106391;1287;61951;-85
2022/06/18 00:55:17;;;;;;;4.20;3.10;;;;;;;25.48;48.44;101063.48;106325;1287;62392;-83
2022/06/18 00:58:07;;;;;;;6.50;3.40;;;;;;;25.47;48.33;101061.37;106131;1289;72119;-83
2022/06/18 01:00:37;;;;;;;4.70;3.10;;;;;;;25.47;48.39;101064.23;106141;1288;76348;-84
2022/06/18 01:03:03;;;;;;;5.30;3.30;;;;;;;25.47;48.44;101063.17;106430;1287;62024;-84
2022/06/18 01:05:38;;;;;;;5.50;3.40;;;;;;;25.48;48.49;101062.05;106072;1289;62101;-84
2022/06/18 01:08:10;;;;;;;5.40;2.90;;;;;;;25.47;48.66;101056.67;106272;1287;73915;-83
2022/06/18 01:10:41;;;;;;;5.40;3.10;;;;;;;25.47;48.58;101058.13;106324;1287;75693;-84
2022/06/18 01:13:10;;;;;;;4.50;2.90;;;;;;;25.47;48.61;101060.46;106403;1289;61974;-83
2022/06/18 01:15:37;;;;;;;4.10;2.80;;;;;;;25.47;48.47;101061.23;106371;1289;62413;-84
2022/06/18 01:18:02;;;;;;;4.40;3.20;;;;;;;25.47;48.34;101060.14;106040;1289;61922;-83
2022/06/18 01:20:28;;;;;;;4.30;2.80;;;;;;;25.46;48.49;101058.89;106056;1289;62179;-85
2022/06/18 01:23:02;;;;;;;4.00;3.00;;;;;;;25.47;48.53;101055.45;106384;1287;62723;-83
2022/06/18 01:25:28;;;;;;;3.90;2.90;;;;;;;25.47;48.54;101057.27;107198;1283;63182;-83
2022/06/18 01:27:54;;;;;;;4.10;3.10;;;;;;;25.46;48.52;101055.48;106989;1284;62101;-82
2022/06/18 01:30:23;;;;;;;4.40;2.90;;;;;;;25.46;48.45;101055.67;107122;1283;62008;-85
2022/06/18 01:32:51;;;;;;;4.70;2.90;;;;;;;25.46;48.46;101044.50;106795;1283;61946;-83
2022/06/18 01:35:17;;;;;;;4.40;3.00;;;;;;;25.46;48.58;101040.54;107110;1283;62071;-85
2022/06/18 01:37:43;;;;;;;3.90;2.90;;;;;;;25.46;48.41;101036.23;107237;1281;62004;-84
2022/06/18 01:40:10;;;;;;;3.90;3.00;;;;;;;25.46;48.68;101034.48;107100;1281;62206;-83
2022/06/18 01:42:40;;;;;;;5.10;2.90;;;;;;;25.46;48.43;101034.98;107233;1283;63160;-84
2022/06/18 01:45:12;;;;;;;4.70;2.90;;;;;;;25.45;48.35;101034.13;106808;1286;62097;-83
2022/06/18 01:47:57;;;;;;;4.60;3.10;;;;;;;25.46;48.73;101040.23;106970;1284;72521;-83
2022/06/18 01:50:26;;;;;;;4.00;2.80;;;;;;;25.45;48.66;101044.42;107196;1283;75437;-85
2022/06/18 01:53:26;;;;;;;6.20;3.00;;;;;;;25.45;48.72;101049.13;107216;1283;62039;-85
2022/06/18 01:55:57;;;;;;;3.90;3.00;;;;;;;25.44;48.46;101052.22;106830;1283;62137;-83
2022/06/18 01:58:27;;;;;;;4.00;3.00;;;;;;;25.44;48.41;101053.33;106977;1284;73726;-83
2022/06/18 02:00:55;;;;;;;4.60;2.70;;;;;;;25.44;48.71;101051.88;106838;1283;75040;-84
2022/06/18 02:03:21;;;;;;;3.70;2.70;;;;;;;25.44;48.71;101054.61;107105;1283;61968;-84
2022/06/18 02:05:46;;;;;;;4.30;2.90;;;;;;;25.43;48.60;101056.26;107209;1283;62098;-84
2022/06/18 02:08:13;;;;;;;3.90;2.90;;;;;;;25.44;48.51;101060.20;106819;1281;62539;-84
2022/06/18 02:10:45;;;;;;;4.00;2.90;;;;;;;25.44;48.59;101060.56;107250;1281;62049;-85
2022/06/18 02:13:10;;;;;;;3.90;3.00;;;;;;;25.44;48.63;101063.60;107257;1281;62051;-84
2022/06/18 02:15:39;;;;;;;3.60;2.60;;;;;;;25.44;48.61;101066.16;107187;1281;62049;-84
2022/06/18 02:18:06;;;;;;;4.40;2.90;;;;;;;25.44;48.54;101066.88;107011;1281;72830;-83
2022/06/18 02:20:35;;;;;;;4.10;2.80;;;;;;;25.43;48.51;101064.38;107212;1281;76348;-85
2022/06/18 02:23:01;;;;;;;3.40;2.60;;;;;;;25.43;48.52;101063.83;106699;1285;61851;-83
2022/06/18 02:25:28;;;;;;;4.10;2.80;;;;;;;25.43;48.52;101064.77;107255;1281;62065;-84
2022/06/18 02:28:02;;;;;;;4.40;3.00;;;;;;;25.43;48.58;101067.81;107038;1284;61971;-82
2022/06/18 02:30:30;;;;;;;4.60;2.90;;;;;;;25.43;48.57;101067.26;107188;1282;76390;-84
2022/06/18 02:33:28;;;;;;;4.40;2.70;;;;;;;25.43;48.58;101066.05;107052;1284;62885;-82
2022/06/18 02:35:55;;;;;;;3.90;2.60;;;;;;;25.43;48.60;101068.92;107266;1281;61917;-83
2022/06/18 02:38:21;;;;;;;3.80;2.50;;;;;;;25.42;48.56;101068.58;107223;1281;71882;-83
2022/06/18 02:40:47;;;;;;;4.40;3.00;;;;;;;25.42;48.59;101071.81;107130;1284;62146;-85
2022/06/18 02:43:13;;;;;;;4.00;2.70;;;;;;;25.42;48.43;101075.25;106866;1284;62004;-85
2022/06/18 02:45:39;;;;;;;5.90;2.90;;;;;;;25.43;48.49;101082.23;106976;1284;62053;-84
2022/06/18 02:48:05;;;;;;;3.90;2.60;;;;;;;25.43;48.60;101079.38;107156;1284;62024;-83
2022/06/18 02:50:33;;;;;;;4.30;3.00;;;;;;;25.43;48.55;101086.04;106990;1283;62049;-83
2022/06/18 02:53:01;;;;;;;4.00;2.70;;;;;;;25.43;48.59;101088.20;107144;1284;62076;-83
2022/06/18 02:55:38;;;;;;;4.60;3.00;;;;;;;25.43;48.68;101088.02;107222;1283;61872;-88
2022/06/18 02:58:23;;;;;;;3.90;2.80;;;;;;;25.42;48.64;101094.00;107114;1284;72749;-83
2022/06/18 03:01:02;;;;;;;3.40;2.60;;;;;;;25.43;48.47;101099.74;106699;1284;75545;-85
2022/06/18 03:03:33;;;;;;;5.10;2.90;;;;;;;25.42;48.60;101100.86;107190;1283;61938;-81
2022/06/18 03:05:58;;;;;;;4.40;2.90;;;;;;;25.42;48.64;101105.73;106487;1286;62096;-82
2022/06/18 03:08:26;;;;;;;6.40;2.70;;;;;;;25.43;48.52;101104.63;107248;1282;62043;-83
2022/06/18 03:13:36;;;;;;;3.80;2.80;;;;;;;25.42;48.46;101105.35;107159;1284;62066;-85
2022/06/18 03:16:02;;;;;;;4.20;2.80;;;;;;;25.42;48.57;101106.43;106859;1284;62086;-83
2022/06/18 03:18:29;;;;;;;4.00;2.60;;;;;;;25.42;48.52;101107.52;106972;1284;62111;-83
2022/06/18 03:21:20;;;;;;;4.90;2.70;;;;;;;25.42;48.49;101108.96;107153;1283;61940;-83
2022/06/18 03:23:46;;;;;;;5.00;3.10;;;;;;;25.43;48.53;101108.58;106295;1287;61980;-83
2022/06/18 03:26:12;;;;;;;4.40;2.50;;;;;;;25.42;48.41;101110.95;106100;1287;62081;-83
2022/06/18 03:28:38;;;;;;;4.10;2.40;;;;;;;25.43;48.46;101115.06;106280;1287;62212;-82
2022/06/18 03:31:04;;;;;;;3.70;2.60;;;;;;;25.42;48.50;101118.67;106316;1287;62081;-83
2022/06/18 03:33:30;;;;;;;5.20;3.00;;;;;;;25.42;48.47;101123.70;106407;1287;62088;-84
2022/06/18 03:35:56;;;;;;;3.90;2.70;;;;;;;25.42;48.52;101125.01;106398;1287;62119;-82
2022/06/18 03:38:22;;;;;;;3.40;2.50;;;;;;;25.43;48.43;101131.62;106292;1287;62463;-83
2022/06/18 03:40:51;;;;;;;3.90;2.70;;;;;;;25.43;48.41;101133.80;106154;1290;62144;-83
2022/06/18 03:43:19;;;;;;;4.30;2.80;;;;;;;25.43;48.33;101138.27;106257;1289;63204;-83
2022/06/18 03:45:46;;;;;;;3.50;2.60;;;;;;;25.43;48.52;101134.14;106239;1290;62066;-83
2022/06/18 03:48:32;;;;;;;3.40;2.60;;;;;;;25.42;48.44;101133.80;106408;1287;73861;-83
2022/06/18 03:50:58;;;;;;;3.40;2.70;;;;;;;25.42;48.36;101136.88;106050;1289;76020;-83
2022/06/18 03:53:24;;;;;;;3.90;2.90;;;;;;;25.43;48.58;101140.07;106303;1287;62527;-85
2022/06/18 03:55:50;;;;;;;4.80;2.90;;;;;;;25.43;48.48;101138.42;106317;1287;62083;-85
2022/06/18 03:58:16;;;;;;;4.10;2.60;;;;;;;25.43;48.43;101139.89;106088;1289;62142;-83
2022/06/18 04:00:41;;;;;;;4.30;2.70;;;;;;;25.43;48.45;101137.16;106482;1284;62166;-83
2022/06/18 04:03:07;;;;;;;3.50;2.70;;;;;;;25.43;48.36;101137.17;107253;1281;62062;-84
2022/06/18 04:05:35;;;;;;;5.50;2.50;;;;;;;25.43;48.50;101137.53;107279;1281;62034;-84
2022/06/18 04:08:00;;;;;;;3.70;2.70;;;;;;;25.44;48.58;101135.69;107212;1281;62036;-83
2022/06/18 04:10:26;;;;;;;3.60;2.50;;;;;;;25.44;48.39;101136.97;107161;1281;62050;-84
2022/06/18 04:12:53;;;;;;;3.70;2.60;;;;;;;25.44;48.44;101134.04;107083;1281;62092;-83
2022/06/18 04:15:19;;;;;;;3.50;2.50;;;;;;;25.44;48.49;101137.81;107231;1283;62293;-84
2022/06/18 04:17:46;;;;;;;4.90;2.60;;;;;;;25.44;48.59;101142.86;107245;1283;62040;-83
2022/06/18 04:20:20;;;;;;;3.40;2.50;;;;;;;25.45;48.56;101142.30;106814;1283;62065;-83
2022/06/18 04:22:45;;;;;;;4.50;2.70;;;;;;;25.45;48.46;101145.88;107152;1282;75323;-84
2022/06/18 04:25:11;;;;;;;3.10;2.40;;;;;;;25.45;48.44;101144.94;107098;1281;62126;-83
2022/06/18 04:27:37;;;;;;;3.50;2.60;;;;;;;25.45;48.45;101144.06;107107;1281;62074;-83
2022/06/18 04:30:03;;;;;;;4.20;2.50;;;;;;;25.46;48.38;101145.98;106831;1284;62070;-83
2022/06/18 04:32:29;;;;;;;3.20;2.60;;;;;;;25.46;48.38;101153.73;107136;1283;62102;-83
2022/06/18 04:34:55;;;;;;;4.40;2.60;;;;;;;25.46;48.34;101156.77;107072;1283;62070;-83
2022/06/18 04:37:20;;;;;;;3.90;2.80;;;;;;;25.47;48.36;101154.20;107264;1283;62070;-83
2022/06/18 04:39:46;;;;;;;4.80;2.50;;;;;;;25.47;48.34;101157.21;106890;1284;62046;-83
2022/06/18 04:42:11;;;;;;;3.50;2.60;;;;;;;25.48;48.36;101160.39;107241;1281;62168;-84
2022/06/18 04:44:37;;;;;;;3.70;2.50;;;;;;;25.48;48.28;101159.47;107244;1281;62040;-86
2022/06/18 04:47:03;;;;;;;4.10;2.50;;;;;;;25.49;48.28;101164.48;107163;1281;62172;-83
2022/06/18 04:49:29;;;;;;;4.00;2.50;;;;;;;25.50;48.31;101165.29;107092;1283;62040;-82
2022/06/18 04:51:54;;;;;;;4.30;2.80;;;;;;;25.50;48.31;101164.39;106863;1281;62068;-83
2022/06/18 04:54:20;;;;;;;3.70;2.60;;;;;;;25.51;48.15;101172.41;106819;1283;72635;-83
2022/06/18 04:56:46;;;;;;;6.30;2.60;;;;;;;25.52;48.33;101177.70;107125;1281;62064;-83
2022/06/18 04:59:13;;;;;;;4.40;2.70;;;;;;;25.53;48.18;101177.59;106653;1284;62168;-83
2022/06/18 05:01:38;;;;;;;2.80;2.30;;;;;;;25.54;48.25;101185.25;106827;1283;62354;-84
2022/06/18 05:04:04;;;;;;;4.20;2.60;;;;;;;25.55;48.11;101183.94;106906;1283;62103;-83
2022/06/18 05:06:29;;;;;;;3.90;2.50;;;;;;;25.55;48.22;101188.23;107146;1283;62044;-83
2022/06/18 05:08:55;;;;;;;4.20;2.30;;;;;;;25.55;48.07;101192.04;107082;1283;62075;-83
2022/06/18 05:11:21;;;;;;;5.80;2.60;;;;;;;25.55;48.18;101197.61;107103;1283;62011;-83
2022/06/18 05:13:46;;;;;;;5.80;2.70;;;;;;;25.54;48.11;101199.10;107111;1283;62059;-83
2022/06/18 05:16:13;;;;;;;3.50;2.30;;;;;;;25.54;48.25;101202.36;107135;1283;62082;-83
2022/06/18 05:18:44;;;;;;;3.60;2.40;;;;;;;25.54;47.95;101209.04;106883;1283;62051;-85
2022/06/18 05:21:09;;;;;;;3.30;2.40;;;;;;;25.54;48.04;101213.58;106992;1283;61940;-82
2022/06/18 05:23:35;;;;;;;4.60;2.50;;;;;;;25.53;48.00;101213.61;107035;1283;61395;-83
2022/06/18 05:26:02;;;;;;;4.00;2.70;;;;;;;25.53;47.99;101215.63;107143;1283;62149;-84
2022/06/18 05:28:28;;;;;;;3.40;2.40;;;;;;;25.53;48.11;101216.52;107123;1283;61967;-83
2022/06/18 05:30:54;;;;;;;4.30;2.30;;;;;;;25.53;48.00;101217.23;107051;1282;62036;-83
2022/06/18 05:33:20;;;;;;;3.40;2.50;;;;;;;25.54;48.01;101218.21;107048;1281;62107;-83
2022/06/18 05:35:45;;;;;;;3.40;2.40;;;;;;;25.55;48.14;101217.98;107242;1283;62216;-83
2022/06/18 05:38:17;;;;;;;3.90;2.50;;;;;;;25.56;48.13;101221.66;106887;1283;62127;-82
2022/06/18 05:40:42;;;;;;;3.30;2.40;;;;;;;25.57;48.01;101220.70;106839;1284;77455;-83
2022/06/18 05:43:08;;;;;;;3.00;2.40;;;;;;;25.58;47.88;101227.48;106684;1283;62176;-83
2022/06/18 05:45:34;;;;;;;4.10;2.70;;;;;;;25.58;47.85;101233.05;107266;1281;62103;-86
2022/06/18 05:47:59;;;;;;;4.50;2.20;;;;;;;25.58;47.98;101231.75;106835;1283;62027;-83
2022/06/18 05:50:25;;;;;;;3.60;2.60;;;;;;;25.58;47.92;101235.02;107208;1283;62222;-84
2022/06/18 05:52:51;;;;;;;3.30;2.50;;;;;;;25.59;47.89;101240.37;106924;1286;63234;-83
2022/06/18 05:55:20;;;;;;;4.10;2.50;;;;;;;25.58;47.99;101239.68;107014;1283;62068;-84
2022/06/18 05:57:52;;;;;;;3.30;2.40;;;;;;;25.58;47.88;101240.79;107115;1283;61928;-84
2022/06/18 06:00:18;;;;;;;3.60;2.30;;;;;;;25.58;47.97;101238.69;106859;1283;74054;-84
2022/06/18 06:02:44;;;;;;;4.60;2.30;;;;;;;25.57;47.99;101236.71;106891;1283;76445;-83
2022/06/18 06:05:10;;;;;;;3.50;2.40;;;;;;;25.57;47.95;101234.58;106794;1283;62076;-84
2022/06/18 06:07:35;;;;;;;2.90;2.20;;;;;;;25.56;47.95;101235.71;106864;1283;61986;-84
2022/06/18 06:12:45;;;;;;;3.50;2.50;;;;;;;25.56;47.90;101243.33;107283;1281;74988;-83
2022/06/18 06:15:11;;;;;;;4.00;2.40;;;;;;;25.56;48.00;101242.63;106509;1282;977589;-83
2022/06/18 06:17:37;;;;;;;3.70;2.30;;;;;;;25.55;47.99;101241.96;107085;1283;62075;-85
2022/06/18 06:20:17;;;;;;;4.40;2.50;;;;;;;25.54;47.96;101247.21;107202;1283;62094;-84
2022/06/18 06:22:43;;;;;;;2.80;2.20;;;;;;;25.54;47.88;101249.05;107084;1283;76533;-83
2022/06/18 06:25:09;;;;;;;2.80;2.10;;;;;;;25.53;48.06;101251.28;107245;1281;62053;-84
2022/06/18 06:27:34;;;;;;;3.80;2.40;;;;;;;25.53;47.94;101251.63;106934;1281;62076;-83
2022/06/18 06:30:01;;;;;;;4.20;2.40;;;;;;;25.54;48.01;101255.61;107101;1281;62056;-86
2022/06/18 06:32:27;;;;;;;2.70;2.20;;;;;;;25.53;47.86;101254.20;107068;1282;62208;-84
2022/06/18 06:34:52;;;;;;;4.20;2.60;;;;;;;25.53;47.92;101255.66;106891;1283;62097;-84
2022/06/18 06:37:18;;;;;;;3.80;2.60;;;;;;;25.53;48.04;101254.77;107275;1283;62053;-84
2022/06/18 06:39:43;;;;;;;4.00;2.40;;;;;;;25.53;47.96;101257.83;107013;1283;61969;-84
2022/06/18 06:42:09;;;;;;;4.50;2.40;;;;;;;25.52;47.86;101253.21;106886;1283;62221;-83
2022/06/18 06:44:35;;;;;;;3.50;2.40;;;;;;;25.53;48.02;101251.31;106832;1286;62162;-84
2022/06/18 06:47:00;;;;;;;3.30;2.40;;;;;;;25.54;48.02;101255.02;107042;1283;61466;-84
2022/06/18 06:49:26;;;;;;;3.60;2.30;;;;;;;25.55;47.77;101258.73;106837;1283;62088;-84
2022/06/18 06:51:53;;;;;;;3.20;2.40;;;;;;;25.56;47.98;101257.40;106847;1283;62080;-83
2022/06/18 06:54:19;;;;;;;3.50;2.30;;;;;;;25.57;47.75;101257.69;106922;1283;73996;-83
2022/06/18 06:59:29;;;;;;;3.30;2.30;;;;;;;25.58;47.83;101262.22;107234;1281;62104;-83
2022/06/18 07:01:55;;;;;;;3.30;2.40;;;;;;;25.59;47.81;101261.59;107056;1283;62053;-84
2022/06/18 07:04:21;;;;;;;3.40;2.40;;;;;;;25.59;47.85;101262.28;106880;1283;62181;-83
2022/06/18 07:06:47;;;;;;;3.40;2.30;;;;;;;25.60;47.68;101266.96;106872;1283;63912;-84
2022/06/18 07:09:13;;;;;;;3.40;2.30;;;;;;;25.60;47.82;101268.94;106909;1283;62213;-83
2022/06/18 07:11:39;;;;;;;3.00;2.20;;;;;;;25.60;47.70;101271.06;107060;1283;62053;-83
2022/06/18 07:14:05;;;;;;;4.20;2.30;;;;;;;25.61;47.90;101267.09;106935;1283;62093;-83
2022/06/18 07:16:31;;;;;;;2.90;2.30;;;;;;;25.62;47.76;101265.02;106899;1283;62039;-83
2022/06/18 07:18:58;;;;;;;3.00;2.30;;;;;;;25.61;47.89;101260.00;107263;1281;75315;-85
2022/06/18 07:21:24;;;;;;;4.10;2.50;;;;;;;25.62;47.75;101264.30;107221;1283;62052;-83
2022/06/18 07:23:51;;;;;;;3.10;2.30;;;;;;;25.62;47.71;101262.14;107218;1283;62057;-83
2022/06/18 07:26:18;;;;;;;3.60;2.30;;;;;;;25.62;47.77;101266.80;106869;1283;62127;-83
2022/06/18 07:28:44;;;;;;;3.20;2.20;;;;;;;25.63;47.78;101264.39;106993;1283;76839;-83
2022/06/18 07:31:36;;;;;;;4.00;2.50;;;;;;;25.63;47.74;101266.75;107058;1283;62248;-81
2022/06/18 07:34:04;;;;;;;3.30;2.10;;;;;;;25.63;47.85;101269.46;106850;1284;61913;-83
2022/06/18 07:36:32;;;;;;;3.60;2.60;;;;;;;25.64;47.74;101269.39;106874;1283;73930;-84
2022/06/18 07:38:59;;;;;;;4.80;2.60;;;;;;;25.64;47.76;101273.70;106917;1283;76552;-83
2022/06/18 07:41:47;;;;;;;4.10;2.40;;;;;;;25.64;47.66;101273.71;106881;1283;62063;-84
2022/06/18 07:44:13;;;;;;;3.00;2.30;;;;;;;25.64;47.76;101274.05;107002;1281;62154;-84
2022/06/18 07:46:38;;;;;;;3.50;2.40;;;;;;;25.63;47.76;101273.94;106904;1283;62064;-84
2022/06/18 07:49:05;;;;;;;5.30;2.50;;;;;;;25.64;47.83;101276.55;106926;1283;62127;-84
2022/06/18 07:51:31;;;;;;;3.60;2.40;;;;;;;25.64;47.85;101277.10;107128;1281;62095;-84
2022/06/18 07:53:56;;;;;;;3.20;2.20;;;;;;;25.64;47.78;101276.90;107029;1281;62149;-86
2022/06/18 07:56:22;;;;;;;3.60;2.30;;;;;;;25.65;47.62;101277.77;106988;1283;62027;-83
2022/06/18 07:58:48;;;;;;;3.60;2.30;;;;;;;25.64;47.83;101274.70;107245;1283;62070;-87
2022/06/18 08:01:13;;;;;;;3.90;2.70;;;;;;;25.65;47.76;101272.16;106909;1283;75487;-84
2022/06/18 08:03:39;;;;;;;2.70;2.00;;;;;;;25.66;47.59;101268.48;106820;1283;62164;-84
2022/06/18 08:06:07;;;;;;;5.00;2.40;;;;;;;25.66;47.65;101265.77;107069;1283;62290;-83
2022/06/18 08:08:32;;;;;;;4.10;2.20;;;;;;;25.65;47.54;101273.92;106641;1283;61296;-85
2022/06/18 08:10:58;;;;;;;3.70;2.20;;;;;;;25.65;47.73;101271.92;106871;1283;62085;-83
2022/06/18 08:13:24;;;;;;;3.00;2.20;;;;;;;25.66;47.68;101265.24;107266;1283;62162;-83
2022/06/18 08:15:49;;;;;;;2.90;2.20;;;;;;;25.66;47.66;101266.46;106928;1283;62075;-84
2022/06/18 08:18:15;;;;;;;4.00;2.30;;;;;;;25.66;47.66;101272.80;106915;1281;62046;-85
2022/06/18 08:20:41;;;;;;;3.40;2.30;;;;;;;25.66;47.74;101268.45;107021;1281;72585;-84
2022/06/18 08:23:06;;;;;;;4.00;2.30;;;;;;;25.66;47.73;101268.95;107125;1281;62207;-82
2022/06/18 08:25:32;;;;;;;3.90;2.30;;;;;;;25.67;47.72;101266.73;107015;1281;68251;-84
2022/06/18 08:28:01;;;;;;;3.00;2.20;;;;;;;25.67;47.72;101267.11;106932;1281;62830;-82
2022/06/18 08:30:26;;;;;;;3.30;2.10;;;;;;;25.67;47.63;101266.70;107291;1281;61995;-83
2022/06/18 08:32:52;;;;;;;3.30;2.30;;;;;;;25.68;47.46;101263.23;107005;1281;62092;-83
2022/06/18 08:35:18;;;;;;;2.90;2.10;;;;;;;25.69;47.51;101254.70;107127;1283;62088;-85
2022/06/18 08:37:43;;;;;;;2.80;2.10;;;;;;;25.69;47.38;101258.45;106974;1283;62030;-85
2022/06/18 08:40:34;;;;;;;2.90;2.30;;;;;;;25.69;47.51;101259.54;106915;1283;62167;-86
2022/06/18 08:43:56;;;;;;;3.40;2.30;;;;;;;25.70;47.58;101256.05;107237;1281;73642;-83
2022/06/18 08:46:31;;;;;;;3.00;2.30;;;;;;;25.70;47.56;101256.92;106780;1281;74466;-84
2022/06/18 08:49:03;;;;;;;3.20;2.30;;;;;;;25.71;47.57;101250.55;107282;1281;61963;-83
2022/06/18 08:51:37;;;;;;;3.40;2.20;;;;;;;25.71;47.56;101248.36;107286;1281;62058;-84
2022/06/18 08:54:18;;;;;;;2.80;2.10;;;;;;;25.72;47.53;101251.55;107279;1281;72734;-84
2022/06/18 08:56:48;;;;;;;4.00;2.30;;;;;;;25.72;47.57;101255.66;107210;1282;75305;-84
2022/06/18 08:59:42;;;;;;;3.00;2.30;;;;;;;25.72;47.46;101252.95;106840;1284;61936;-83
2022/06/18 09:02:59;;;;;;;3.50;2.20;;;;;;;25.72;47.55;101248.64;107266;1281;61898;-83
2022/06/18 09:05:44;;;;;;;3.10;2.30;;;;;;;25.72;47.39;101243.95;106417;1287;73533;-83
2022/06/18 09:08:13;;;;;;;2.90;2.00;;;;;;;25.73;47.40;101247.34;106226;1288;76410;-83
2022/06/18 09:11:11;;;;;;;3.20;2.20;;;;;;;25.72;47.42;101247.18;106440;1287;61850;-84
2022/06/18 09:14:05;;;;;;;3.50;2.00;;;;;;;25.74;47.55;101250.31;106221;1287;62899;-83
2022/06/18 09:16:38;;;;;;;3.30;2.30;;;;;;;25.73;47.48;101256.48;106406;1287;73566;-83
2022/06/18 09:19:06;;;;;;;3.30;2.20;;;;;;;25.73;47.44;101251.80;106239;1287;76034;-83
2022/06/18 09:21:39;;;;;;;3.10;2.30;;;;;;;25.74;47.37;101250.50;106218;1286;61964;-83
2022/06/18 09:24:06;;;;;;;3.20;2.10;;;;;;;25.74;47.45;101256.61;106266;1287;61818;-84
2022/06/18 09:26:41;;;;;;;3.00;2.10;;;;;;;25.75;47.33;101246.09;106142;1287;72706;-85
2022/06/18 09:29:27;;;;;;;3.50;2.30;;;;;;;25.74;47.29;101243.44;106409;1287;75530;-83
2022/06/18 09:32:06;;;;;;;2.80;2.30;;;;;;;25.75;47.39;101247.17;106161;1287;62044;-84
2022/06/18 09:34:33;;;;;;;5.10;2.30;;;;;;;25.75;47.31;101252.73;106280;1288;62411;-83
2022/06/18 09:37:09;;;;;;;3.30;2.20;;;;;;;25.75;47.33;101246.04;106264;1287;72587;-83
2022/06/18 09:39:39;;;;;;;3.80;2.30;;;;;;;25.75;47.34;101247.69;106443;1287;76116;-83
2022/06/18 09:42:14;;;;;;;4.40;2.30;;;;;;;25.75;47.41;101249.67;106362;1283;62159;-84
2022/06/18 09:45:16;;;;;;;3.20;2.20;;;;;;;25.75;47.35;101246.06;106922;1283;62614;-83
2022/06/18 09:47:48;;;;;;;2.70;2.00;;;;;;;25.75;47.10;101244.64;107123;1282;72798;-83
2022/06/18 09:50:27;;;;;;;2.70;2.10;;;;;;;25.74;47.26;101234.89;106752;1283;75479;-83
2022/06/18 09:53:07;;;;;;;3.10;2.20;;;;;;;25.75;47.23;101234.19;106867;1281;62101;-84
2022/06/18 09:55:46;;;;;;;2.90;2.10;;;;;;;25.75;47.06;101235.05;106829;1281;63121;-81
2022/06/18 09:58:20;;;;;;;2.70;2.20;;;;;;;25.75;47.19;101236.13;107209;1282;73949;-83
2022/06/18 10:00:45;;;;;;;3.90;2.40;;;;;;;25.75;47.44;101228.36;106898;1282;76367;-83
2022/06/18 10:03:12;;;;;;;2.70;2.00;;;;;;;25.76;47.32;101235.17;106892;1283;62062;-83
2022/06/18 10:08:40;;;;;;;2.80;2.10;;;;;;;25.75;47.24;101231.40;106563;1283;72967;-83
2022/06/18 10:11:09;;;;;;;2.90;2.10;;;;;;;25.76;47.20;101230.14;106535;1283;62210;-83
2022/06/18 10:13:42;;;;;;;2.80;2.20;;;;;;;25.77;47.17;101231.49;106964;1283;62101;-85
2022/06/18 10:16:15;;;;;;;3.90;2.30;;;;;;;25.77;47.35;101226.45;106661;1283;62000;-83
2022/06/18 10:18:57;;;;;;;3.10;2.20;;;;;;;25.77;47.16;101223.59;107033;1281;73857;-83
2022/06/18 10:21:40;;;;;;;3.10;2.10;;;;;;;25.76;47.18;101224.52;107217;1283;76696;-83
2022/06/18 10:24:15;;;;;;;4.30;2.30;;;;;;;25.76;47.33;101222.93;106910;1283;62001;-83
2022/06/18 10:26:53;;;;;;;2.80;2.20;;;;;;;25.76;47.26;101222.70;107245;1283;62050;-83
2022/06/18 10:29:28;;;;;;;2.80;2.00;;;;;;;25.76;47.11;101217.84;107218;1282;72544;-84
2022/06/18 10:31:56;;;;;;;3.50;2.10;;;;;;;25.75;47.24;101216.63;106983;1283;75310;-84
2022/06/18 10:34:31;;;;;;;3.60;2.20;;;;;;;25.75;47.33;101219.37;107231;1283;62051;-83
2022/06/18 10:37:14;;;;;;;2.60;2.00;;;;;;;25.75;47.04;101219.02;107167;1283;61964;-83
2022/06/18 10:40:03;;;;;;;4.00;2.20;;;;;;;25.75;47.16;101217.05;106926;1280;72616;-86
2022/06/18 10:43:06;;;;;;;3.10;2.10;;;;;;;25.75;47.08;101215.80;106902;1283;75460;-83
2022/06/18 10:45:34;;;;;;;3.10;2.10;;;;;;;25.74;47.07;101212.26;106864;1284;62173;-83
2022/06/18 10:48:00;;;;;;;3.10;2.10;;;;;;;25.74;47.15;101217.11;107031;1283;61890;-84
2022/06/18 10:50:26;;;;;;;3.10;2.30;;;;;;;25.74;47.11;101215.67;107286;1281;62043;-83
2022/06/18 10:53:04;;;;;;;3.60;2.30;;;;;;;25.73;47.23;101210.48;106923;1283;62098;-84
2022/06/18 10:55:30;;;;;;;3.10;2.20;;;;;;;25.73;47.09;101209.59;107167;1281;61999;-84
2022/06/18 10:58:09;;;;;;;2.90;2.30;;;;;;;25.73;47.23;101206.39;106961;1283;62068;-83
2022/06/18 11:00:35;;;;;;;2.90;2.10;;;;;;;25.73;47.02;101207.65;107259;1281;72977;-83
2022/06/18 11:03:01;;;;;;;2.70;1.90;;;;;;;25.73;47.11;101208.02;107243;1281;62043;-83
2022/06/18 11:05:35;;;;;;;2.80;2.10;;;;;;;25.73;47.23;101209.45;106999;1281;62136;-83
2022/06/18 11:08:03;;;;;;;2.70;2.10;;;;;;;25.73;47.08;101202.41;106936;1283;61205;-84
2022/06/18 11:10:36;;;;;;;2.90;2.00;;;;;;;25.73;46.86;101205.48;107143;1281;72747;-83
2022/06/18 11:13:03;;;;;;;2.80;2.20;;;;;;;25.72;47.08;101197.23;106885;1283;77080;-84
2022/06/18 11:15:34;;;;;;;4.40;2.30;;;;;;;25.73;47.20;101200.98;107294;1281;62043;-83
2022/06/18 11:18:03;;;;;;;2.90;2.10;;;;;;;25.73;47.08;101198.45;107019;1283;62200;-84
2022/06/18 11:20:30;;;;;;;2.70;1.90;;;;;;;25.73;47.01;101198.45;107125;1281;75177;-83
2022/06/18 11:22:55;;;;;;;3.40;2.20;;;;;;;25.73;47.17;101199.37;106666;1283;76396;-83
2022/06/18 11:25:40;;;;;;;3.10;2.20;;;;;;;25.73;47.13;101201.33;106966;1283;62083;-82
2022/06/18 11:28:32;;;;;;;3.00;2.10;;;;;;;25.74;47.07;101203.80;106807;1283;61947;-81
2022/06/18 11:30:58;;;;;;;3.10;2.00;;;;;;;25.73;47.12;101201.17;106448;1283;73638;-83
2022/06/18 11:33:41;;;;;;;3.20;2.10;;;;;;;25.73;47.21;101200.59;106723;1283;62053;-83
2022/06/18 11:36:14;;;;;;;3.10;2.10;;;;;;;25.74;47.21;101194.94;106768;1283;61995;-83
2022/06/18 11:38:40;;;;;;;2.90;2.10;;;;;;;25.75;47.04;101190.17;106645;1283;61824;-83
2022/06/18 11:41:21;;;;;;;2.70;2.00;;;;;;;25.76;47.08;101187.23;106759;1282;69468;-83
2022/06/18 11:43:58;;;;;;;2.90;2.00;;;;;;;25.76;47.07;101191.21;106767;1283;75297;-83
2022/06/18 11:46:29;;;;;;;3.20;2.20;;;;;;;25.77;46.99;101192.56;107104;1281;63046;-83